createdAt,value
2022-10-31T00:00:27.970Z,11.59
2022-10-31T00:03:32.263Z,11.70
2022-10-31T00:06:37.570Z,11.63
2022-10-31T00:09:41.597Z,11.64
2022-10-31T00:12:45.187Z,11.66
2022-10-31T00:15:53.211Z,11.66
2022-10-31T00:19:02.997Z,11.66
2022-10-31T00:22:10.030Z,11.71
2022-10-31T00:25:15.929Z,11.67
2022-10-31T00:28:22.610Z,11.52
2022-10-31T00:31:29.959Z,11.51
2022-10-31T00:34:37.893Z,11.59
2022-10-31T00:37:45.821Z,11.57
2022-10-31T00:40:55.101Z,11.55
2022-10-31T00:44:00.965Z,11.46
2022-10-31T00:47:08.152Z,11.48
2022-10-31T00:50:17.422Z,11.47
2022-10-31T00:53:24.743Z,11.39
2022-10-31T00:56:30.142Z,11.34
2022-10-31T00:59:38.240Z,11.29
2022-10-31T01:02:44.450Z,11.34
2022-10-31T01:06:19.463Z,11.36
2022-10-31T01:09:28.050Z,11.34
2022-10-31T01:12:48.242Z,11.37
2022-10-31T01:15:58.311Z,11.30
2022-10-31T01:19:05.218Z,11.24
2022-10-31T01:22:11.565Z,11.33
2022-10-31T01:25:19.263Z,11.33
2022-10-31T01:28:27.371Z,11.32
2022-10-31T01:31:38.619Z,11.25
2022-10-31T01:34:45.876Z,11.25
2022-10-31T01:37:54.941Z,11.39
2022-10-31T01:41:01.607Z,11.40
2022-10-31T01:44:18.501Z,11.34
2022-10-31T01:47:43.978Z,11.22
2022-10-31T01:50:54.026Z,11.20
2022-10-31T01:54:03.216Z,11.14
2022-10-31T01:57:13.505Z,11.14
2022-10-31T02:00:19.338Z,11.09
2022-10-31T02:03:27.956Z,11.08
2022-10-31T02:06:38.170Z,10.99
2022-10-31T02:09:46.087Z,11.02
2022-10-31T02:12:57.673Z,11.09
2022-10-31T02:16:04.443Z,11.12
2022-10-31T02:19:15.550Z,11.06
2022-10-31T02:22:27.634Z,11.09
2022-10-31T02:25:55.804Z,11.12
2022-10-31T02:29:05.890Z,11.09
2022-10-31T02:32:15.715Z,11.15
2022-10-31T02:35:37.981Z,11.10
2022-10-31T02:39:05.274Z,10.94
2022-10-31T02:42:18.150Z,10.96
2022-10-31T02:45:32.422Z,11.04
2022-10-31T02:48:41.740Z,10.98
2022-10-31T02:51:50.632Z,10.92
2022-10-31T02:54:58.272Z,10.82
2022-10-31T02:58:10.308Z,10.82
2022-10-31T03:01:36.595Z,10.87
2022-10-31T03:05:09.304Z,10.89
2022-10-31T03:08:27.555Z,11.00
2022-10-31T03:11:43.837Z,10.99
2022-10-31T03:14:58.747Z,10.99
2022-10-31T03:18:05.374Z,11.15
2022-10-31T03:21:12.974Z,11.14
2022-10-31T03:24:22.151Z,11.09
2022-10-31T03:27:29.109Z,11.17
2022-10-31T03:30:39.026Z,11.01
2022-10-31T03:33:48.337Z,11.01
2022-10-31T03:36:57.848Z,11.06
2022-10-31T03:40:07.391Z,10.86
2022-10-31T03:43:14.837Z,10.90
2022-10-31T03:46:22.944Z,10.89
2022-10-31T03:49:30.861Z,10.76
2022-10-31T03:52:39.088Z,10.79
2022-10-31T03:55:57.319Z,10.95
2022-10-31T03:59:07.698Z,10.94
2022-10-31T04:02:18.405Z,11.02
2022-10-31T04:05:26.428Z,10.98
2022-10-31T04:08:38.536Z,10.92
2022-10-31T04:11:53.410Z,10.86
2022-10-31T04:15:00.870Z,10.82
2022-10-31T04:18:08.530Z,10.97
2022-10-31T04:21:15.027Z,11.00
2022-10-31T04:24:23.790Z,10.92
2022-10-31T04:27:29.317Z,10.93
2022-10-31T04:30:35.661Z,10.92
2022-10-31T04:33:43.666Z,10.80
2022-10-31T04:36:52.019Z,10.88
2022-10-31T04:39:59.067Z,10.93
2022-10-31T04:43:08.232Z,10.99
2022-10-31T04:46:15.785Z,11.00
2022-10-31T04:49:22.032Z,11.06
2022-10-31T04:52:29.087Z,11.00
2022-10-31T04:55:35.824Z,11.17
2022-10-31T04:58:43.787Z,11.28
2022-10-31T05:01:51.416Z,11.31
2022-10-31T05:04:58.654Z,11.21
2022-10-31T05:08:06.180Z,11.14
2022-10-31T05:11:13.982Z,11.07
2022-10-31T05:14:21.612Z,11.11
2022-10-31T05:17:34.520Z,11.07
2022-10-31T05:20:43.240Z,11.02
2022-10-31T05:23:52.494Z,10.99
2022-10-31T05:27:01.588Z,11.06
2022-10-31T05:30:09.359Z,10.98
2022-10-31T05:33:17.122Z,11.08
2022-10-31T05:36:27.479Z,11.15
2022-10-31T05:39:36.725Z,11.23
2022-10-31T05:42:44.057Z,11.19
2022-10-31T05:45:56.198Z,11.21
2022-10-31T05:49:04.083Z,11.28
2022-10-31T05:52:17.147Z,11.04
2022-10-31T05:55:22.970Z,11.02
2022-10-31T05:58:32.539Z,11.09
2022-10-31T06:01:38.754Z,11.11
2022-10-31T06:04:49.940Z,11.17
2022-10-31T06:07:58.759Z,10.99
2022-10-31T06:11:07.877Z,11.00
2022-10-31T06:14:14.367Z,11.13
2022-10-31T06:17:23.273Z,11.15
2022-10-31T06:20:31.018Z,10.93
2022-10-31T06:23:38.795Z,11.09
2022-10-31T06:26:47.447Z,11.14
2022-10-31T06:29:57.014Z,11.26
2022-10-31T06:33:04.486Z,11.24
2022-10-31T06:36:11.624Z,11.38
2022-10-31T06:39:17.720Z,11.43
2022-10-31T06:42:25.913Z,11.50
2022-10-31T06:45:31.152Z,11.52
2022-10-31T06:48:48.061Z,11.50
2022-10-31T06:51:54.229Z,11.63
2022-10-31T06:55:01.424Z,11.59
2022-10-31T06:58:11.334Z,11.60
2022-10-31T07:01:19.078Z,11.59
2022-10-31T07:04:27.190Z,11.76
2022-10-31T07:07:34.249Z,11.68
2022-10-31T07:10:42.384Z,12.00
2022-10-31T07:13:50.084Z,12.18
2022-10-31T07:16:59.441Z,12.19
2022-10-31T07:20:09.010Z,11.96
2022-10-31T07:23:16.518Z,11.74
2022-10-31T07:26:22.929Z,12.02
2022-10-31T07:29:26.888Z,11.88
2022-10-31T07:32:42.670Z,11.83
2022-10-31T07:35:49.489Z,11.72
2022-10-31T07:38:57.027Z,11.70
2022-10-31T07:42:02.459Z,11.77
2022-10-31T07:45:12.465Z,11.87
2022-10-31T07:48:23.550Z,12.08
2022-10-31T07:51:31.052Z,12.16
2022-10-31T07:54:41.756Z,12.20
2022-10-31T07:57:57.438Z,12.04
2022-10-31T08:01:07.265Z,12.15
2022-10-31T08:04:17.398Z,12.14
2022-10-31T08:07:26.750Z,12.07
2022-10-31T08:10:34.397Z,11.97
2022-10-31T08:13:41.429Z,11.98
2022-10-31T08:16:47.763Z,12.02
2022-10-31T08:19:57.129Z,12.12
2022-10-31T08:23:07.377Z,12.04
2022-10-31T08:26:11.948Z,12.06
2022-10-31T08:29:17.450Z,11.98
2022-10-31T08:32:23.956Z,12.20
2022-10-31T08:35:35.154Z,11.92
2022-10-31T08:38:45.760Z,12.14
2022-10-31T08:41:54.413Z,12.31
2022-10-31T08:45:01.859Z,12.36
2022-10-31T08:48:10.870Z,12.61
2022-10-31T08:51:17.445Z,12.64
2022-10-31T08:54:24.531Z,12.69
2022-10-31T08:57:36.045Z,12.69
2022-10-31T09:00:42.122Z,12.42
2022-10-31T09:03:47.695Z,12.17
2022-10-31T09:07:19.707Z,12.30
2022-10-31T09:10:17.321Z,12.54
2022-10-31T09:13:27.425Z,12.59
2022-10-31T09:16:37.790Z,12.57
2022-10-31T09:19:44.592Z,12.45
2022-10-31T09:22:50.004Z,12.49
2022-10-31T09:25:58.080Z,12.66
2022-10-31T09:29:04.435Z,12.58
2022-10-31T09:32:11.810Z,12.54
2022-10-31T09:35:21.704Z,12.70
2022-10-31T09:38:31.713Z,12.75
2022-10-31T09:41:59.887Z,12.61
2022-10-31T09:45:25.401Z,12.25
2022-10-31T09:48:36.873Z,12.40
2022-10-31T09:51:51.917Z,12.65
2022-10-31T09:55:00.686Z,12.42
2022-10-31T09:58:10.733Z,12.56
2022-10-31T10:01:23.250Z,12.58
2022-10-31T10:04:33.290Z,12.74
2022-10-31T10:07:43.802Z,12.70
2022-10-31T10:11:06.406Z,12.85
2022-10-31T10:14:24.344Z,12.92
2022-10-31T10:17:33.176Z,12.93
2022-10-31T10:20:44.741Z,12.95
2022-10-31T10:23:59.762Z,12.93
2022-10-31T10:27:08.900Z,12.57
2022-10-31T10:30:20.867Z,12.48
2022-10-31T10:33:33.900Z,12.63
2022-10-31T10:36:46.452Z,12.65
2022-10-31T10:39:55.486Z,12.91
2022-10-31T10:43:17.717Z,13.17
2022-10-31T10:46:54.810Z,13.24
2022-10-31T10:50:02.807Z,13.26
2022-10-31T10:53:23.022Z,12.66
2022-10-31T10:56:38.844Z,12.99
2022-10-31T10:59:43.102Z,13.06
2022-10-31T11:02:49.739Z,12.97
2022-10-31T11:06:03.369Z,12.92
2022-10-31T11:09:12.782Z,12.86
2022-10-31T11:12:31.182Z,12.95
2022-10-31T11:15:42.301Z,12.94
2022-10-31T11:18:50.022Z,12.54
2022-10-31T11:21:55.879Z,12.57
2022-10-31T11:25:00.291Z,12.79
2022-10-31T11:28:12.738Z,12.87
2022-10-31T11:31:17.031Z,12.90
2022-10-31T11:34:29.784Z,12.95
2022-10-31T11:37:38.287Z,13.07
2022-10-31T11:40:53.846Z,12.63
2022-10-31T11:43:59.973Z,12.31
2022-10-31T11:47:15.169Z,12.57
2022-10-31T11:50:21.937Z,12.82
2022-10-31T11:53:32.393Z,12.96
2022-10-31T11:56:41.852Z,12.99
2022-10-31T11:59:51.677Z,12.84
2022-10-31T12:03:15.264Z,12.91
2022-10-31T12:06:34.131Z,13.10
2022-10-31T12:09:39.946Z,13.24
2022-10-31T12:12:48.237Z,13.18
2022-10-31T12:15:55.783Z,12.92
2022-10-31T12:19:13.789Z,13.01
2022-10-31T12:22:28.048Z,13.11
2022-10-31T12:25:41.463Z,13.18
2022-10-31T12:28:55.329Z,12.97
2022-10-31T12:32:13.983Z,12.78
2022-10-31T12:35:32.040Z,12.81
2022-10-31T12:39:03.423Z,12.86
2022-10-31T12:42:31.897Z,12.66
2022-10-31T12:45:55.089Z,12.66
2022-10-31T12:49:13.188Z,12.83
2022-10-31T12:52:21.491Z,12.80
2022-10-31T12:55:31.074Z,12.85
2022-10-31T12:58:46.081Z,12.58
2022-10-31T13:01:55.135Z,12.80
2022-10-31T13:05:02.999Z,12.70
2022-10-31T13:08:10.659Z,12.55
2022-10-31T13:11:18.466Z,12.25
2022-10-31T13:14:27.765Z,12.28
2022-10-31T13:17:45.174Z,12.35
2022-10-31T13:20:55.511Z,12.22
2022-10-31T13:24:04.184Z,12.26
2022-10-31T13:27:14.782Z,12.20
2022-10-31T13:30:23.167Z,12.26
2022-10-31T13:33:55.959Z,12.44
2022-10-31T13:37:19.649Z,12.41
2022-10-31T13:40:35.500Z,12.19
2022-10-31T13:43:49.391Z,12.06
2022-10-31T13:46:54.724Z,12.05
2022-10-31T13:50:21.338Z,12.02
2022-10-31T13:53:40.022Z,12.15
2022-10-31T13:56:50.338Z,12.17
2022-10-31T13:59:57.173Z,12.21
2022-10-31T14:03:05.344Z,12.23
2022-10-31T14:06:14.728Z,12.21
2022-10-31T14:09:23.370Z,12.21
2022-10-31T14:12:34.603Z,12.28
2022-10-31T14:15:41.450Z,12.23
2022-10-31T14:18:54.547Z,12.01
2022-10-31T14:22:02.201Z,12.06
2022-10-31T14:25:28.253Z,12.10
2022-10-31T14:28:36.210Z,12.06
2022-10-31T14:31:48.382Z,12.11
2022-10-31T14:35:02.268Z,12.05
2022-10-31T14:38:14.171Z,12.09
2022-10-31T14:41:44.544Z,12.00
2022-10-31T14:45:17.477Z,11.98
2022-10-31T14:48:23.461Z,11.93
2022-10-31T14:51:34.609Z,11.82
2022-10-31T14:54:42.596Z,11.80
2022-10-31T14:57:54.723Z,11.86
2022-10-31T15:01:02.101Z,11.84
2022-10-31T15:04:23.745Z,11.75
2022-10-31T15:07:30.572Z,11.84
2022-10-31T15:10:48.132Z,11.77
2022-10-31T15:13:55.924Z,11.78
2022-10-31T15:17:04.920Z,11.71
2022-10-31T15:20:15.118Z,11.56
2022-10-31T15:23:29.644Z,11.58
2022-10-31T15:26:38.522Z,11.56
2022-10-31T15:29:57.458Z,11.74
2022-10-31T15:33:02.948Z,11.68
2022-10-31T15:36:28.645Z,11.58
2022-10-31T15:39:40.632Z,11.60
2022-10-31T15:42:49.515Z,11.73
2022-10-31T15:45:54.323Z,11.66
2022-10-31T15:49:00.657Z,11.61
2022-10-31T15:52:15.297Z,11.61
2022-10-31T15:55:24.002Z,11.64
2022-10-31T15:58:31.089Z,11.58
2022-10-31T16:01:41.219Z,11.62
2022-10-31T16:04:58.949Z,11.53
2022-10-31T16:08:05.585Z,11.62
2022-10-31T16:11:16.712Z,11.50
2022-10-31T16:14:25.837Z,11.47
2022-10-31T16:17:32.525Z,11.44
2022-10-31T16:20:40.093Z,11.46
2022-10-31T16:23:50.385Z,11.49
2022-10-31T16:26:58.383Z,11.55
2022-10-31T16:30:06.094Z,11.54
2022-10-31T16:33:32.035Z,11.55
2022-10-31T16:36:40.558Z,11.50
2022-10-31T16:39:50.785Z,11.28
2022-10-31T16:42:58.957Z,11.37
2022-10-31T16:46:07.009Z,11.38
2022-10-31T16:49:12.833Z,11.41
2022-10-31T16:52:19.522Z,11.47
2022-10-31T16:55:26.027Z,11.40
2022-10-31T16:58:37.870Z,11.33
2022-10-31T17:01:48.530Z,11.35
2022-10-31T17:04:56.960Z,11.23
2022-10-31T17:08:03.171Z,11.19
2022-10-31T17:11:11.293Z,11.14
2022-10-31T17:14:17.981Z,11.19
2022-10-31T17:17:23.928Z,11.05
2022-10-31T17:20:32.531Z,11.03
2022-10-31T17:23:39.951Z,10.95
2022-10-31T17:26:47.107Z,10.96
2022-10-31T17:29:52.922Z,11.03
2022-10-31T17:33:01.660Z,11.05
2022-10-31T17:36:09.026Z,10.97
2022-10-31T17:39:19.996Z,10.99
2022-10-31T17:42:27.721Z,10.92
2022-10-31T17:45:35.361Z,10.95
2022-10-31T17:48:44.153Z,10.88
2022-10-31T17:51:53.326Z,10.89
2022-10-31T17:55:00.744Z,10.90
2022-10-31T17:58:15.141Z,10.80
2022-10-31T18:01:22.390Z,10.83
2022-10-31T18:04:31.164Z,10.97
2022-10-31T18:07:40.675Z,11.01
2022-10-31T18:10:48.074Z,10.88
2022-10-31T18:13:58.806Z,10.89
2022-10-31T18:17:05.993Z,10.93
2022-10-31T18:20:13.961Z,10.88
2022-10-31T18:23:23.414Z,10.75
2022-10-31T18:26:28.986Z,10.77
2022-10-31T18:29:34.340Z,10.77
2022-10-31T18:32:41.009Z,10.78
2022-10-31T18:35:50.678Z,10.70
2022-10-31T18:38:58.579Z,10.72
2022-10-31T18:42:08.638Z,10.80
2022-10-31T18:45:32.598Z,10.82
2022-10-31T18:48:43.897Z,10.88
2022-10-31T18:51:51.481Z,10.82
2022-10-31T18:54:54.768Z,10.82
2022-10-31T18:57:59.281Z,10.73
2022-10-31T19:01:08.490Z,10.82
2022-10-31T19:04:15.061Z,10.83
2022-10-31T19:07:23.946Z,10.85
2022-10-31T19:10:30.646Z,10.82
2022-10-31T19:13:38.584Z,10.74
2022-10-31T19:16:52.005Z,10.74
2022-10-31T19:19:59.118Z,10.78
2022-10-31T19:23:04.563Z,10.68
2022-10-31T19:26:11.421Z,10.77
2022-10-31T19:29:17.784Z,10.73
2022-10-31T19:32:24.635Z,10.68
2022-10-31T19:35:31.649Z,10.63
2022-10-31T19:38:40.871Z,10.77
2022-10-31T19:41:47.747Z,10.79
2022-10-31T19:44:54.157Z,10.75
2022-10-31T19:47:59.829Z,10.71
2022-10-31T19:51:08.376Z,10.64
2022-10-31T19:54:15.698Z,10.70
2022-10-31T19:57:35.837Z,10.64
2022-10-31T20:00:49.830Z,10.57
2022-10-31T20:03:57.429Z,10.61
2022-10-31T20:07:04.617Z,10.60
2022-10-31T20:10:13.801Z,10.49
2022-10-31T20:13:20.941Z,10.55
2022-10-31T20:16:29.100Z,10.62
2022-10-31T20:19:35.854Z,10.63
2022-10-31T20:22:42.812Z,10.64
2022-10-31T20:25:51.327Z,10.64
2022-10-31T20:28:59.305Z,10.53
2022-10-31T20:32:08.073Z,10.57
2022-10-31T20:35:14.529Z,10.56
2022-10-31T20:38:23.332Z,10.60
2022-10-31T20:41:31.176Z,10.56
2022-10-31T20:44:37.731Z,10.62
2022-10-31T20:47:44.209Z,10.65
2022-10-31T20:50:51.672Z,10.62
2022-10-31T20:53:58.104Z,10.55
2022-10-31T20:57:03.860Z,10.60
2022-10-31T21:00:12.971Z,10.62
2022-10-31T21:03:17.823Z,10.54
2022-10-31T21:06:24.352Z,10.59
2022-10-31T21:09:29.803Z,10.57
2022-10-31T21:12:36.046Z,10.56
2022-10-31T21:15:42.916Z,10.39
2022-10-31T21:18:50.550Z,10.39
2022-10-31T21:21:57.332Z,10.45
2022-10-31T21:25:04.327Z,10.49
2022-10-31T21:28:11.971Z,10.51
2022-10-31T21:31:20.449Z,10.48
2022-10-31T21:34:27.515Z,10.49
2022-10-31T21:37:33.921Z,10.52
2022-10-31T21:40:40.733Z,10.50
2022-10-31T21:43:56.299Z,10.52
2022-10-31T21:47:02.571Z,10.59
2022-10-31T21:50:07.728Z,10.55
2022-10-31T21:53:30.529Z,10.51
2022-10-31T21:56:38.503Z,10.47
2022-10-31T21:59:49.221Z,10.51
2022-10-31T22:02:55.747Z,10.41
2022-10-31T22:06:03.973Z,10.40
2022-10-31T22:09:11.363Z,10.34
2022-10-31T22:12:17.680Z,10.38
2022-10-31T22:15:26.458Z,10.45
2022-10-31T22:18:34.148Z,10.31
2022-10-31T22:21:44.518Z,10.40
2022-10-31T22:24:52.623Z,10.42
2022-10-31T22:27:58.540Z,10.33
2022-10-31T22:31:09.393Z,10.28
2022-10-31T22:34:16.536Z,10.23
2022-10-31T22:37:22.867Z,10.19
2022-10-31T22:40:28.009Z,10.30
2022-10-31T22:43:36.475Z,10.23
2022-10-31T22:46:41.730Z,10.24
2022-10-31T22:49:47.725Z,10.28
2022-10-31T22:52:54.097Z,10.32
2022-10-31T22:56:01.679Z,10.38
2022-10-31T22:59:08.898Z,10.29
2022-10-31T23:02:13.645Z,10.16
2022-10-31T23:05:17.742Z,10.09
2022-10-31T23:08:22.487Z,10.10
2022-10-31T23:11:28.638Z,10.10
2022-10-31T23:14:31.884Z,10.12
2022-10-31T23:17:35.586Z,10.11
2022-10-31T23:23:52.746Z,10.19
2022-10-31T23:27:11.227Z,10.18
2022-10-31T23:30:17.815Z,10.12
2022-10-31T23:33:24.788Z,10.18
2022-10-31T23:36:32.140Z,10.22
2022-10-31T23:39:37.599Z,10.12
2022-10-31T23:42:43.275Z,10.15
2022-10-31T23:45:50.544Z,10.14
2022-10-31T23:48:56.614Z,10.18
2022-10-31T23:52:03.272Z,10.23
2022-10-31T23:55:13.247Z,10.25
2022-10-31T23:58:21.539Z,10.23
